Briscoe, Texas
Current Conditions -  °F | °C
As of 10:35 PM on Wednesday 26 Nov 2014 (Local Time) from KHHF Reporting Station
Clear Clear  
Wind Chill: -2°   Ceiling: Unl
Heat Index: -2°   Visibility: 10mi
Dew Point: -6°   Wind: 0mph
Humidity: 71%   Direction: NA
Pressure: 30.41"   Gusts: NA
Location:  35.58°N, 100.29°W
Report Text: KHHF 270435Z AUTO 00000KT 10SM CLR M02/M06 A3041 RMK AO2 T10161062
Loading
Personal Weather Stations






























Interactive Weather Map New forecast layout! Learn more

10-Day Weather Forecast

Advertisements
Track Severe Weather on mobile